sensor_id;sensor_type;location;lat;lon;timestamp;P1;durP1;ratioP1;P2;durP2;ratioP2
58669;SDS011;44439;47.924;10.198;2022-11-20T00:00:28;2.17;;;1.70;;
58669;SDS011;44439;47.924;10.198;2022-11-20T00:03:14;1.50;;;1.38;;
58669;SDS011;44439;47.924;10.198;2022-11-20T00:06:03;2.10;;;1.45;;
58669;SDS011;44439;47.924;10.198;2022-11-20T00:08:50;2.35;;;1.52;;
58669;SDS011;44439;47.924;10.198;2022-11-20T00:11:36;2.83;;;1.55;;
58669;SDS011;44439;47.924;10.198;2022-11-20T00:14:21;3.92;;;1.60;;
58669;SDS011;44439;47.924;10.198;2022-11-20T00:17:07;2.20;;;1.55;;
58669;SDS011;44439;47.924;10.198;2022-11-20T00:19:53;2.85;;;1.92;;
58669;SDS011;44439;47.924;10.198;2022-11-20T00:22:38;2.58;;;1.85;;
58669;SDS011;44439;47.924;10.198;2022-11-20T00:25:24;2.67;;;1.80;;
58669;SDS011;44439;47.924;10.198;2022-11-20T00:28:10;2.83;;;2.00;;
58669;SDS011;44439;47.924;10.198;2022-11-20T00:31:08;3.28;;;2.45;;
58669;SDS011;44439;47.924;10.198;2022-11-20T00:33:55;4.03;;;2.33;;
58669;SDS011;44439;47.924;10.198;2022-11-20T00:36:41;4.45;;;2.65;;
58669;SDS011;44439;47.924;10.198;2022-11-20T00:39:27;3.28;;;2.30;;
58669;SDS011;44439;47.924;10.198;2022-11-20T00:42:13;4.22;;;3.20;;
58669;SDS011;44439;47.924;10.198;2022-11-20T00:44:58;6.00;;;3.78;;
58669;SDS011;44439;47.924;10.198;2022-11-20T00:47:44;4.68;;;3.15;;
58669;SDS011;44439;47.924;10.198;2022-11-20T00:50:30;3.72;;;3.13;;
58669;SDS011;44439;47.924;10.198;2022-11-20T00:53:15;5.78;;;3.65;;
58669;SDS011;44439;47.924;10.198;2022-11-20T00:56:02;4.47;;;3.60;;
58669;SDS011;44439;47.924;10.198;2022-11-20T00:58:52;4.82;;;3.42;;
58669;SDS011;44439;47.924;10.198;2022-11-20T01:01:38;4.53;;;3.97;;
58669;SDS011;44439;47.924;10.198;2022-11-20T01:04:23;3.90;;;3.50;;
58669;SDS011;44439;47.924;10.198;2022-11-20T01:07:09;5.72;;;4.22;;
58669;SDS011;44439;47.924;10.198;2022-11-20T01:09:55;4.65;;;3.78;;
58669;SDS011;44439;47.924;10.198;2022-11-20T01:12:40;4.65;;;4.03;;
58669;SDS011;44439;47.924;10.198;2022-11-20T01:15:26;5.57;;;4.15;;
58669;SDS011;44439;47.924;10.198;2022-11-20T01:18:12;6.10;;;4.30;;
58669;SDS011;44439;47.924;10.198;2022-11-20T01:21:11;4.15;;;3.75;;
58669;SDS011;44439;47.924;10.198;2022-11-20T01:24:11;5.47;;;3.80;;
58669;SDS011;44439;47.924;10.198;2022-11-20T01:26:58;4.13;;;3.53;;
58669;SDS011;44439;47.924;10.198;2022-11-20T01:29:43;3.78;;;3.13;;
58669;SDS011;44439;47.924;10.198;2022-11-20T01:32:29;4.22;;;3.60;;
58669;SDS011;44439;47.924;10.198;2022-11-20T01:35:14;4.28;;;3.58;;
58669;SDS011;44439;47.924;10.198;2022-11-20T01:38:00;3.70;;;3.25;;
58669;SDS011;44439;47.924;10.198;2022-11-20T01:40:53;4.70;;;3.58;;
58669;SDS011;44439;47.924;10.198;2022-11-20T01:43:39;3.88;;;3.20;;
58669;SDS011;44439;47.924;10.198;2022-11-20T01:46:25;3.58;;;3.10;;
58669;SDS011;44439;47.924;10.198;2022-11-20T01:49:21;3.20;;;2.90;;
58669;SDS011;44439;47.924;10.198;2022-11-20T01:52:13;3.85;;;3.08;;
58669;SDS011;44439;47.924;10.198;2022-11-20T01:55:09;4.38;;;3.17;;
58669;SDS011;44439;47.924;10.198;2022-11-20T01:57:58;3.50;;;3.10;;
58669;SDS011;44439;47.924;10.198;2022-11-20T02:00:45;4.50;;;3.60;;
58669;SDS011;44439;47.924;10.198;2022-11-20T02:03:30;3.75;;;2.88;;
58669;SDS011;44439;47.924;10.198;2022-11-20T02:06:19;3.95;;;3.30;;
58669;SDS011;44439;47.924;10.198;2022-11-20T02:09:07;4.25;;;3.25;;
58669;SDS011;44439;47.924;10.198;2022-11-20T02:11:52;4.25;;;3.20;;
58669;SDS011;44439;47.924;10.198;2022-11-20T02:14:38;4.35;;;3.03;;
58669;SDS011;44439;47.924;10.198;2022-11-20T02:17:24;4.45;;;3.10;;
58669;SDS011;44439;47.924;10.198;2022-11-20T02:20:10;3.92;;;3.13;;
58669;SDS011;44439;47.924;10.198;2022-11-20T02:22:57;3.17;;;2.85;;
58669;SDS011;44439;47.924;10.198;2022-11-20T02:25:46;3.47;;;3.00;;
58669;SDS011;44439;47.924;10.198;2022-11-20T02:28:32;4.50;;;3.05;;
58669;SDS011;44439;47.924;10.198;2022-11-20T02:31:18;3.88;;;2.88;;
58669;SDS011;44439;47.924;10.198;2022-11-20T02:34:04;4.82;;;2.83;;
58669;SDS011;44439;47.924;10.198;2022-11-20T02:36:50;3.75;;;2.72;;
58669;SDS011;44439;47.924;10.198;2022-11-20T02:39:37;3.97;;;3.00;;
58669;SDS011;44439;47.924;10.198;2022-11-20T02:42:22;4.30;;;2.95;;
58669;SDS011;44439;47.924;10.198;2022-11-20T02:45:08;4.13;;;2.92;;
58669;SDS011;44439;47.924;10.198;2022-11-20T02:47:54;4.60;;;3.30;;
58669;SDS011;44439;47.924;10.198;2022-11-20T02:50:40;4.95;;;2.95;;
58669;SDS011;44439;47.924;10.198;2022-11-20T02:53:26;6.38;;;3.13;;
58669;SDS011;44439;47.924;10.198;2022-11-20T02:56:11;3.75;;;2.90;;
58669;SDS011;44439;47.924;10.198;2022-11-20T02:58:57;3.67;;;2.90;;
58669;SDS011;44439;47.924;10.198;2022-11-20T03:01:43;3.92;;;3.00;;
58669;SDS011;44439;47.924;10.198;2022-11-20T03:04:28;4.32;;;2.90;;
58669;SDS011;44439;47.924;10.198;2022-11-20T03:07:15;4.30;;;2.95;;
58669;SDS011;44439;47.924;10.198;2022-11-20T03:10:00;5.00;;;3.00;;
58669;SDS011;44439;47.924;10.198;2022-11-20T03:12:46;3.65;;;3.05;;
58669;SDS011;44439;47.924;10.198;2022-11-20T03:15:32;4.38;;;3.08;;
58669;SDS011;44439;47.924;10.198;2022-11-20T03:18:17;4.30;;;3.40;;
58669;SDS011;44439;47.924;10.198;2022-11-20T03:21:03;4.65;;;3.38;;
58669;SDS011;44439;47.924;10.198;2022-11-20T03:23:49;4.50;;;2.70;;
58669;SDS011;44439;47.924;10.198;2022-11-20T03:26:35;5.00;;;3.50;;
58669;SDS011;44439;47.924;10.198;2022-11-20T03:29:20;3.92;;;3.53;;
58669;SDS011;44439;47.924;10.198;2022-11-20T03:32:06;4.25;;;3.10;;
58669;SDS011;44439;47.924;10.198;2022-11-20T03:34:52;3.85;;;3.05;;
58669;SDS011;44439;47.924;10.198;2022-11-20T03:37:39;4.60;;;3.50;;
58669;SDS011;44439;47.924;10.198;2022-11-20T03:40:24;4.32;;;3.58;;
58669;SDS011;44439;47.924;10.198;2022-11-20T03:43:12;5.85;;;4.10;;
58669;SDS011;44439;47.924;10.198;2022-11-20T03:46:00;4.15;;;3.35;;
58669;SDS011;44439;47.924;10.198;2022-11-20T03:48:48;3.97;;;3.50;;
58669;SDS011;44439;47.924;10.198;2022-11-20T03:51:35;5.10;;;3.70;;
58669;SDS011;44439;47.924;10.198;2022-11-20T03:54:21;4.82;;;3.63;;
58669;SDS011;44439;47.924;10.198;2022-11-20T03:57:06;4.47;;;3.50;;
58669;SDS011;44439;47.924;10.198;2022-11-20T03:59:52;3.83;;;3.20;;
58669;SDS011;44439;47.924;10.198;2022-11-20T04:02:38;5.82;;;3.45;;
58669;SDS011;44439;47.924;10.198;2022-11-20T04:05:23;3.47;;;3.10;;
58669;SDS011;44439;47.924;10.198;2022-11-20T04:08:09;5.50;;;3.85;;
58669;SDS011;44439;47.924;10.198;2022-11-20T04:10:55;4.95;;;4.15;;
58669;SDS011;44439;47.924;10.198;2022-11-20T04:13:41;4.90;;;3.88;;
58669;SDS011;44439;47.924;10.198;2022-11-20T04:16:34;4.80;;;3.80;;
58669;SDS011;44439;47.924;10.198;2022-11-20T04:19:20;4.85;;;3.72;;
58669;SDS011;44439;47.924;10.198;2022-11-20T04:22:06;5.85;;;3.85;;
58669;SDS011;44439;47.924;10.198;2022-11-20T04:24:52;5.72;;;4.25;;
58669;SDS011;44439;47.924;10.198;2022-11-20T04:27:38;5.88;;;4.45;;
58669;SDS011;44439;47.924;10.198;2022-11-20T04:30:23;4.65;;;3.80;;
58669;SDS011;44439;47.924;10.198;2022-11-20T04:33:09;5.00;;;3.88;;
58669;SDS011;44439;47.924;10.198;2022-11-20T04:35:55;4.80;;;4.00;;
58669;SDS011;44439;47.924;10.198;2022-11-20T04:38:40;5.25;;;4.00;;
58669;SDS011;44439;47.924;10.198;2022-11-20T04:41:28;5.75;;;4.32;;
58669;SDS011;44439;47.924;10.198;2022-11-20T04:44:15;5.35;;;3.90;;
58669;SDS011;44439;47.924;10.198;2022-11-20T04:47:01;5.40;;;4.38;;
58669;SDS011;44439;47.924;10.198;2022-11-20T04:49:47;5.53;;;4.00;;
58669;SDS011;44439;47.924;10.198;2022-11-20T04:52:32;4.85;;;3.92;;
58669;SDS011;44439;47.924;10.198;2022-11-20T04:55:18;4.50;;;4.10;;
58669;SDS011;44439;47.924;10.198;2022-11-20T04:58:04;7.68;;;4.43;;
58669;SDS011;44439;47.924;10.198;2022-11-20T05:00:49;4.72;;;3.70;;
58669;SDS011;44439;47.924;10.198;2022-11-20T05:03:37;5.80;;;3.90;;
58669;SDS011;44439;47.924;10.198;2022-11-20T05:06:23;5.13;;;3.85;;
58669;SDS011;44439;47.924;10.198;2022-11-20T05:09:08;6.22;;;3.95;;
58669;SDS011;44439;47.924;10.198;2022-11-20T05:11:54;4.25;;;3.42;;
58669;SDS011;44439;47.924;10.198;2022-11-20T05:14:40;5.25;;;4.00;;
58669;SDS011;44439;47.924;10.198;2022-11-20T05:17:25;6.18;;;4.00;;
58669;SDS011;44439;47.924;10.198;2022-11-20T05:20:11;4.40;;;3.55;;
58669;SDS011;44439;47.924;10.198;2022-11-20T05:22:57;4.78;;;3.55;;
58669;SDS011;44439;47.924;10.198;2022-11-20T05:25:42;4.82;;;3.55;;
58669;SDS011;44439;47.924;10.198;2022-11-20T05:28:28;6.53;;;3.83;;
58669;SDS011;44439;47.924;10.198;2022-11-20T05:31:16;5.93;;;3.92;;
58669;SDS011;44439;47.924;10.198;2022-11-20T05:34:04;4.78;;;3.70;;
58669;SDS011;44439;47.924;10.198;2022-11-20T05:36:49;6.05;;;3.83;;
58669;SDS011;44439;47.924;10.198;2022-11-20T05:39:35;4.97;;;3.90;;
58669;SDS011;44439;47.924;10.198;2022-11-20T05:42:21;6.22;;;4.50;;
58669;SDS011;44439;47.924;10.198;2022-11-20T05:45:15;5.32;;;4.32;;
58669;SDS011;44439;47.924;10.198;2022-11-20T05:48:01;5.15;;;4.13;;
58669;SDS011;44439;47.924;10.198;2022-11-20T05:50:47;4.82;;;4.07;;
58669;SDS011;44439;47.924;10.198;2022-11-20T05:53:33;4.95;;;4.03;;
58669;SDS011;44439;47.924;10.198;2022-11-20T05:56:20;6.20;;;4.20;;
58669;SDS011;44439;47.924;10.198;2022-11-20T05:59:07;5.88;;;3.70;;
58669;SDS011;44439;47.924;10.198;2022-11-20T06:01:52;5.03;;;3.80;;
58669;SDS011;44439;47.924;10.198;2022-11-20T06:04:38;7.30;;;4.10;;
58669;SDS011;44439;47.924;10.198;2022-11-20T06:07:23;5.75;;;4.15;;
58669;SDS011;44439;47.924;10.198;2022-11-20T06:10:09;4.60;;;4.00;;
58669;SDS011;44439;47.924;10.198;2022-11-20T06:12:57;5.13;;;3.63;;
58669;SDS011;44439;47.924;10.198;2022-11-20T06:15:47;5.00;;;4.28;;
58669;SDS011;44439;47.924;10.198;2022-11-20T06:18:37;5.28;;;4.32;;
58669;SDS011;44439;47.924;10.198;2022-11-20T06:21:23;5.40;;;4.07;;
58669;SDS011;44439;47.924;10.198;2022-11-20T06:24:10;8.07;;;4.65;;
58669;SDS011;44439;47.924;10.198;2022-11-20T06:26:55;5.30;;;4.07;;
58669;SDS011;44439;47.924;10.198;2022-11-20T06:29:41;5.22;;;4.00;;
58669;SDS011;44439;47.924;10.198;2022-11-20T06:32:27;6.72;;;4.18;;
58669;SDS011;44439;47.924;10.198;2022-11-20T06:35:13;4.38;;;3.80;;
58669;SDS011;44439;47.924;10.198;2022-11-20T06:37:58;5.50;;;3.80;;
58669;SDS011;44439;47.924;10.198;2022-11-20T06:40:44;4.38;;;3.60;;
58669;SDS011;44439;47.924;10.198;2022-11-20T06:43:29;4.60;;;3.78;;
58669;SDS011;44439;47.924;10.198;2022-11-20T06:46:16;5.43;;;4.20;;
58669;SDS011;44439;47.924;10.198;2022-11-20T06:49:05;5.33;;;3.80;;
58669;SDS011;44439;47.924;10.198;2022-11-20T06:51:51;4.00;;;3.60;;
58669;SDS011;44439;47.924;10.198;2022-11-20T06:54:36;4.50;;;3.50;;
58669;SDS011;44439;47.924;10.198;2022-11-20T06:57:22;4.68;;;3.35;;
58669;SDS011;44439;47.924;10.198;2022-11-20T07:00:08;4.90;;;3.65;;
58669;SDS011;44439;47.924;10.198;2022-11-20T07:02:54;4.47;;;3.50;;
58669;SDS011;44439;47.924;10.198;2022-11-20T07:05:40;4.80;;;3.55;;
58669;SDS011;44439;47.924;10.198;2022-11-20T07:08:26;4.38;;;3.00;;
58669;SDS011;44439;47.924;10.198;2022-11-20T07:11:11;4.32;;;2.80;;
58669;SDS011;44439;47.924;10.198;2022-11-20T07:13:57;4.25;;;3.08;;
58669;SDS011;44439;47.924;10.198;2022-11-20T07:16:43;6.65;;;3.17;;
58669;SDS011;44439;47.924;10.198;2022-11-20T07:19:28;3.78;;;2.90;;
58669;SDS011;44439;47.924;10.198;2022-11-20T07:22:14;4.47;;;2.80;;
58669;SDS011;44439;47.924;10.198;2022-11-20T07:25:00;4.38;;;2.78;;
58669;SDS011;44439;47.924;10.198;2022-11-20T07:27:46;4.25;;;3.10;;
58669;SDS011;44439;47.924;10.198;2022-11-20T07:30:32;4.80;;;2.97;;
58669;SDS011;44439;47.924;10.198;2022-11-20T07:33:18;4.80;;;3.10;;
58669;SDS011;44439;47.924;10.198;2022-11-20T07:36:04;3.92;;;3.08;;
58669;SDS011;44439;47.924;10.198;2022-11-20T07:38:50;3.58;;;2.72;;
58669;SDS011;44439;47.924;10.198;2022-11-20T07:41:36;4.03;;;2.80;;
58669;SDS011;44439;47.924;10.198;2022-11-20T07:44:21;4.40;;;3.35;;
58669;SDS011;44439;47.924;10.198;2022-11-20T07:47:07;4.28;;;3.30;;
58669;SDS011;44439;47.924;10.198;2022-11-20T07:49:53;4.70;;;3.08;;
58669;SDS011;44439;47.924;10.198;2022-11-20T07:52:39;4.30;;;3.13;;
58669;SDS011;44439;47.924;10.198;2022-11-20T07:55:25;4.80;;;3.80;;
58669;SDS011;44439;47.924;10.198;2022-11-20T07:58:11;4.65;;;3.22;;
58669;SDS011;44439;47.924;10.198;2022-11-20T08:00:56;4.88;;;3.47;;
58669;SDS011;44439;47.924;10.198;2022-11-20T08:03:42;4.85;;;2.97;;
58669;SDS011;44439;47.924;10.198;2022-11-20T08:06:28;3.47;;;2.95;;
58669;SDS011;44439;47.924;10.198;2022-11-20T08:09:13;4.32;;;2.88;;
58669;SDS011;44439;47.924;10.198;2022-11-20T08:11:59;3.28;;;2.80;;
58669;SDS011;44439;47.924;10.198;2022-11-20T08:15:04;4.80;;;3.08;;
58669;SDS011;44439;47.924;10.198;2022-11-20T08:17:50;4.22;;;2.92;;
58669;SDS011;44439;47.924;10.198;2022-11-20T08:20:36;5.50;;;3.60;;
58669;SDS011;44439;47.924;10.198;2022-11-20T08:23:22;4.65;;;2.88;;
58669;SDS011;44439;47.924;10.198;2022-11-20T08:26:08;3.95;;;2.80;;
58669;SDS011;44439;47.924;10.198;2022-11-20T08:28:54;2.72;;;2.50;;
58669;SDS011;44439;47.924;10.198;2022-11-20T08:31:41;3.72;;;2.50;;
58669;SDS011;44439;47.924;10.198;2022-11-20T08:34:27;4.97;;;2.70;;
58669;SDS011;44439;47.924;10.198;2022-11-20T08:37:12;2.58;;;2.30;;
58669;SDS011;44439;47.924;10.198;2022-11-20T08:39:58;3.60;;;2.08;;
58669;SDS011;44439;47.924;10.198;2022-11-20T08:42:50;4.68;;;2.63;;
58669;SDS011;44439;47.924;10.198;2022-11-20T08:45:36;2.40;;;2.10;;
58669;SDS011;44439;47.924;10.198;2022-11-20T08:48:22;4.30;;;2.38;;
58669;SDS011;44439;47.924;10.198;2022-11-20T08:51:07;4.72;;;2.40;;
58669;SDS011;44439;47.924;10.198;2022-11-20T08:53:53;4.90;;;2.20;;
58669;SDS011;44439;47.924;10.198;2022-11-20T08:56:39;2.50;;;2.00;;
58669;SDS011;44439;47.924;10.198;2022-11-20T08:59:24;2.95;;;2.05;;
58669;SDS011;44439;47.924;10.198;2022-11-20T09:02:10;2.70;;;1.90;;
58669;SDS011;44439;47.924;10.198;2022-11-20T09:04:56;3.10;;;2.03;;
58669;SDS011;44439;47.924;10.198;2022-11-20T09:07:41;3.88;;;2.10;;
58669;SDS011;44439;47.924;10.198;2022-11-20T09:10:27;2.47;;;1.80;;
58669;SDS011;44439;47.924;10.198;2022-11-20T09:13:13;2.50;;;1.80;;
58669;SDS011;44439;47.924;10.198;2022-11-20T09:15:59;2.10;;;1.70;;
58669;SDS011;44439;47.924;10.198;2022-11-20T09:18:46;3.13;;;1.80;;
58669;SDS011;44439;47.924;10.198;2022-11-20T09:21:32;2.05;;;1.75;;
58669;SDS011;44439;47.924;10.198;2022-11-20T09:24:17;3.08;;;1.80;;
58669;SDS011;44439;47.924;10.198;2022-11-20T09:27:04;3.33;;;1.88;;
58669;SDS011;44439;47.924;10.198;2022-11-20T09:29:50;2.42;;;1.80;;
58669;SDS011;44439;47.924;10.198;2022-11-20T09:32:36;3.13;;;1.83;;
58669;SDS011;44439;47.924;10.198;2022-11-20T09:35:22;2.03;;;1.67;;
58669;SDS011;44439;47.924;10.198;2022-11-20T09:38:07;2.38;;;1.50;;
58669;SDS011;44439;47.924;10.198;2022-11-20T09:40:58;3.22;;;1.70;;
58669;SDS011;44439;47.924;10.198;2022-11-20T09:46:53;2.42;;;1.40;;
58669;SDS011;44439;47.924;10.198;2022-11-20T09:55:59;2.75;;;1.65;;
58669;SDS011;44439;47.924;10.198;2022-11-20T09:59:08;2.75;;;1.63;;
58669;SDS011;44439;47.924;10.198;2022-11-20T10:01:56;1.90;;;1.30;;
58669;SDS011;44439;47.924;10.198;2022-11-20T10:04:52;2.00;;;1.50;;
58669;SDS011;44439;47.924;10.198;2022-11-20T10:10:44;2.63;;;1.58;;
58669;SDS011;44439;47.924;10.198;2022-11-20T10:13:56;2.67;;;1.58;;
58669;SDS011;44439;47.924;10.198;2022-11-20T10:16:52;2.60;;;1.80;;
58669;SDS011;44439;47.924;10.198;2022-11-20T10:19:59;2.33;;;1.58;;
58669;SDS011;44439;47.924;10.198;2022-11-20T10:23:16;1.60;;;1.42;;
58669;SDS011;44439;47.924;10.198;2022-11-20T10:26:14;2.30;;;1.40;;
58669;SDS011;44439;47.924;10.198;2022-11-20T10:29:15;1.55;;;1.38;;
58669;SDS011;44439;47.924;10.198;2022-11-20T10:32:14;2.42;;;1.42;;
58669;SDS011;44439;47.924;10.198;2022-11-20T10:35:04;2.17;;;1.50;;
58669;SDS011;44439;47.924;10.198;2022-11-20T10:38:03;1.80;;;1.60;;
58669;SDS011;44439;47.924;10.198;2022-11-20T10:40:53;1.70;;;1.30;;
58669;SDS011;44439;47.924;10.198;2022-11-20T10:44:21;1.55;;;1.38;;
58669;SDS011;44439;47.924;10.198;2022-11-20T10:47:26;1.40;;;1.15;;
58669;SDS011;44439;47.924;10.198;2022-11-20T10:50:14;1.73;;;1.40;;
58669;SDS011;44439;47.924;10.198;2022-11-20T10:53:05;2.13;;;1.25;;
58669;SDS011;44439;47.924;10.198;2022-11-20T10:56:01;2.75;;;1.58;;
58669;SDS011;44439;47.924;10.198;2022-11-20T11:02:15;2.53;;;1.50;;
58669;SDS011;44439;47.924;10.198;2022-11-20T11:05:34;2.55;;;1.63;;
58669;SDS011;44439;47.924;10.198;2022-11-20T11:08:24;2.97;;;1.90;;
58669;SDS011;44439;47.924;10.198;2022-11-20T11:11:27;2.92;;;1.40;;
58669;SDS011;44439;47.924;10.198;2022-11-20T11:14:17;2.25;;;1.67;;
58669;SDS011;44439;47.924;10.198;2022-11-20T11:17:04;2.58;;;1.35;;
58669;SDS011;44439;47.924;10.198;2022-11-20T11:22:48;3.10;;;1.83;;
58669;SDS011;44439;47.924;10.198;2022-11-20T11:25:35;2.45;;;1.90;;
58669;SDS011;44439;47.924;10.198;2022-11-20T11:28:22;2.05;;;1.83;;
58669;SDS011;44439;47.924;10.198;2022-11-20T11:31:11;6.68;;;1.80;;
58669;SDS011;44439;47.924;10.198;2022-11-20T11:34:13;3.38;;;1.73;;
58669;SDS011;44439;47.924;10.198;2022-11-20T11:37:00;2.85;;;1.70;;
58669;SDS011;44439;47.924;10.198;2022-11-20T11:39:48;3.10;;;1.45;;
58669;SDS011;44439;47.924;10.198;2022-11-20T11:42:34;1.90;;;1.40;;
58669;SDS011;44439;47.924;10.198;2022-11-20T11:45:19;4.55;;;1.70;;
58669;SDS011;44439;47.924;10.198;2022-11-20T11:48:06;1.90;;;1.30;;
58669;SDS011;44439;47.924;10.198;2022-11-20T11:50:53;2.65;;;1.60;;
58669;SDS011;44439;47.924;10.198;2022-11-20T11:53:40;2.15;;;1.35;;
58669;SDS011;44439;47.924;10.198;2022-11-20T11:56:27;3.92;;;2.00;;
58669;SDS011;44439;47.924;10.198;2022-11-20T11:59:22;1.80;;;1.27;;
58669;SDS011;44439;47.924;10.198;2022-11-20T12:05:21;2.65;;;1.50;;
58669;SDS011;44439;47.924;10.198;2022-11-20T12:11:21;3.13;;;1.75;;
58669;SDS011;44439;47.924;10.198;2022-11-20T12:17:17;4.10;;;1.83;;
58669;SDS011;44439;47.924;10.198;2022-11-20T12:20:05;2.00;;;1.42;;
58669;SDS011;44439;47.924;10.198;2022-11-20T12:23:02;1.92;;;1.30;;
58669;SDS011;44439;47.924;10.198;2022-11-20T12:25:54;2.63;;;1.48;;
58669;SDS011;44439;47.924;10.198;2022-11-20T12:28:49;4.85;;;2.58;;
58669;SDS011;44439;47.924;10.198;2022-11-20T12:31:47;3.22;;;1.88;;
58669;SDS011;44439;47.924;10.198;2022-11-20T12:51:02;2.38;;;1.10;;
58669;SDS011;44439;47.924;10.198;2022-11-20T12:57:18;3.28;;;2.10;;
58669;SDS011;44439;47.924;10.198;2022-11-20T13:06:16;3.03;;;1.50;;
58669;SDS011;44439;47.924;10.198;2022-11-20T13:09:03;3.40;;;1.90;;
58669;SDS011;44439;47.924;10.198;2022-11-20T13:18:14;1.92;;;1.35;;
58669;SDS011;44439;47.924;10.198;2022-11-20T13:21:00;2.20;;;1.20;;
58669;SDS011;44439;47.924;10.198;2022-11-20T13:23:45;2.95;;;1.48;;
58669;SDS011;44439;47.924;10.198;2022-11-20T13:26:31;2.63;;;1.65;;
58669;SDS011;44439;47.924;10.198;2022-11-20T13:29:18;2.03;;;1.25;;
58669;SDS011;44439;47.924;10.198;2022-11-20T13:32:22;2.38;;;1.50;;
58669;SDS011;44439;47.924;10.198;2022-11-20T13:35:08;1.92;;;1.45;;
58669;SDS011;44439;47.924;10.198;2022-11-20T13:38:08;10.68;;;6.22;;
58669;SDS011;44439;47.924;10.198;2022-11-20T13:43:43;8.70;;;4.97;;
58669;SDS011;44439;47.924;10.198;2022-11-20T13:46:37;1.85;;;1.40;;
58669;SDS011;44439;47.924;10.198;2022-11-20T13:49:29;2.42;;;1.92;;
58669;SDS011;44439;47.924;10.198;2022-11-20T13:58:33;2.30;;;1.60;;
58669;SDS011;44439;47.924;10.198;2022-11-20T14:01:28;2.97;;;1.65;;
58669;SDS011;44439;47.924;10.198;2022-11-20T14:04:18;2.55;;;1.52;;
58669;SDS011;44439;47.924;10.198;2022-11-20T14:07:06;1.98;;;1.40;;
58669;SDS011;44439;47.924;10.198;2022-11-20T14:09:53;2.17;;;1.42;;
58669;SDS011;44439;47.924;10.198;2022-11-20T14:12:40;3.72;;;1.88;;
58669;SDS011;44439;47.924;10.198;2022-11-20T14:15:32;11.02;;;5.65;;
58669;SDS011;44439;47.924;10.198;2022-11-20T14:18:19;18.42;;;8.30;;
58669;SDS011;44439;47.924;10.198;2022-11-20T14:21:08;6.03;;;3.08;;
58669;SDS011;44439;47.924;10.198;2022-11-20T14:24:09;10.32;;;5.43;;
58669;SDS011;44439;47.924;10.198;2022-11-20T14:26:56;9.25;;;4.15;;
58669;SDS011;44439;47.924;10.198;2022-11-20T14:29:42;3.38;;;2.00;;
58669;SDS011;44439;47.924;10.198;2022-11-20T14:32:29;11.38;;;3.90;;
58669;SDS011;44439;47.924;10.198;2022-11-20T14:35:34;8.20;;;4.13;;
58669;SDS011;44439;47.924;10.198;2022-11-20T14:38:24;8.57;;;3.53;;
58669;SDS011;44439;47.924;10.198;2022-11-20T14:41:18;8.35;;;3.60;;
58669;SDS011;44439;47.924;10.198;2022-11-20T14:44:08;4.10;;;2.05;;
58669;SDS011;44439;47.924;10.198;2022-11-20T14:46:54;7.70;;;4.20;;
58669;SDS011;44439;47.924;10.198;2022-11-20T14:49:40;4.93;;;1.90;;
58669;SDS011;44439;47.924;10.198;2022-11-20T14:52:27;4.57;;;1.85;;
58669;SDS011;44439;47.924;10.198;2022-11-20T14:55:13;2.78;;;1.45;;
58669;SDS011;44439;47.924;10.198;2022-11-20T15:01:12;2.30;;;1.85;;
58669;SDS011;44439;47.924;10.198;2022-11-20T15:04:04;1.92;;;1.38;;
58669;SDS011;44439;47.924;10.198;2022-11-20T15:06:52;2.17;;;1.95;;
58669;SDS011;44439;47.924;10.198;2022-11-20T15:12:28;3.80;;;2.22;;
58669;SDS011;44439;47.924;10.198;2022-11-20T15:15:16;5.72;;;5.13;;
58669;SDS011;44439;47.924;10.198;2022-11-20T15:18:04;4.32;;;2.80;;
58669;SDS011;44439;47.924;10.198;2022-11-20T15:20:50;3.90;;;1.92;;
58669;SDS011;44439;47.924;10.198;2022-11-20T15:23:37;7.72;;;5.35;;
58669;SDS011;44439;47.924;10.198;2022-11-20T15:26:26;6.32;;;3.67;;
58669;SDS011;44439;47.924;10.198;2022-11-20T15:29:13;3.97;;;2.25;;
58669;SDS011;44439;47.924;10.198;2022-11-20T15:32:03;4.38;;;2.30;;
58669;SDS011;44439;47.924;10.198;2022-11-20T15:34:49;4.55;;;2.40;;
58669;SDS011;44439;47.924;10.198;2022-11-20T15:37:35;5.03;;;3.20;;
58669;SDS011;44439;47.924;10.198;2022-11-20T15:40:22;5.80;;;3.60;;
58669;SDS011;44439;47.924;10.198;2022-11-20T15:43:07;4.80;;;3.65;;
58669;SDS011;44439;47.924;10.198;2022-11-20T15:45:58;6.53;;;2.47;;
58669;SDS011;44439;47.924;10.198;2022-11-20T15:48:45;3.95;;;2.13;;
58669;SDS011;44439;47.924;10.198;2022-11-20T15:51:38;4.57;;;3.00;;
58669;SDS011;44439;47.924;10.198;2022-11-20T15:54:25;3.72;;;2.88;;
58669;SDS011;44439;47.924;10.198;2022-11-20T15:57:11;3.25;;;2.17;;
58669;SDS011;44439;47.924;10.198;2022-11-20T15:59:58;6.40;;;2.67;;
58669;SDS011;44439;47.924;10.198;2022-11-20T16:02:43;5.47;;;2.55;;
58669;SDS011;44439;47.924;10.198;2022-11-20T16:05:29;6.78;;;2.25;;
58669;SDS011;44439;47.924;10.198;2022-11-20T16:08:15;14.68;;;8.75;;
58669;SDS011;44439;47.924;10.198;2022-11-20T16:11:01;20.00;;;12.23;;
58669;SDS011;44439;47.924;10.198;2022-11-20T16:13:46;5.47;;;3.47;;
58669;SDS011;44439;47.924;10.198;2022-11-20T16:16:51;2.72;;;1.90;;
58669;SDS011;44439;47.924;10.198;2022-11-20T16:19:37;5.72;;;3.20;;
58669;SDS011;44439;47.924;10.198;2022-11-20T16:22:22;5.47;;;2.85;;
58669;SDS011;44439;47.924;10.198;2022-11-20T16:25:08;3.63;;;2.58;;
58669;SDS011;44439;47.924;10.198;2022-11-20T16:27:54;4.53;;;1.95;;
58669;SDS011;44439;47.924;10.198;2022-11-20T16:30:39;11.52;;;8.20;;
58669;SDS011;44439;47.924;10.198;2022-11-20T16:33:25;8.75;;;7.40;;
58669;SDS011;44439;47.924;10.198;2022-11-20T16:36:12;7.38;;;5.30;;
58669;SDS011;44439;47.924;10.198;2022-11-20T16:38:59;6.35;;;4.80;;
58669;SDS011;44439;47.924;10.198;2022-11-20T16:41:46;4.10;;;3.03;;
58669;SDS011;44439;47.924;10.198;2022-11-20T16:44:31;5.88;;;3.25;;
58669;SDS011;44439;47.924;10.198;2022-11-20T16:47:19;4.50;;;3.22;;
58669;SDS011;44439;47.924;10.198;2022-11-20T16:50:04;6.75;;;4.00;;
58669;SDS011;44439;47.924;10.198;2022-11-20T16:52:50;4.90;;;3.58;;
58669;SDS011;44439;47.924;10.198;2022-11-20T16:55:36;5.68;;;3.92;;
58669;SDS011;44439;47.924;10.198;2022-11-20T16:58:22;6.13;;;3.95;;
58669;SDS011;44439;47.924;10.198;2022-11-20T17:01:08;6.63;;;4.50;;
58669;SDS011;44439;47.924;10.198;2022-11-20T17:03:56;4.78;;;3.63;;
58669;SDS011;44439;47.924;10.198;2022-11-20T17:06:42;4.55;;;3.80;;
58669;SDS011;44439;47.924;10.198;2022-11-20T17:09:28;4.68;;;3.45;;
58669;SDS011;44439;47.924;10.198;2022-11-20T17:12:14;6.65;;;4.38;;
58669;SDS011;44439;47.924;10.198;2022-11-20T17:15:00;10.45;;;6.03;;
58669;SDS011;44439;47.924;10.198;2022-11-20T17:17:45;9.35;;;6.30;;
58669;SDS011;44439;47.924;10.198;2022-11-20T17:20:31;10.07;;;7.07;;
58669;SDS011;44439;47.924;10.198;2022-11-20T17:23:17;9.93;;;6.55;;
58669;SDS011;44439;47.924;10.198;2022-11-20T17:26:03;9.90;;;5.55;;
58669;SDS011;44439;47.924;10.198;2022-11-20T17:29:01;7.88;;;4.70;;
58669;SDS011;44439;47.924;10.198;2022-11-20T17:31:50;5.88;;;3.90;;
58669;SDS011;44439;47.924;10.198;2022-11-20T17:34:38;9.27;;;5.60;;
58669;SDS011;44439;47.924;10.198;2022-11-20T17:37:24;16.02;;;8.15;;
58669;SDS011;44439;47.924;10.198;2022-11-20T17:40:09;32.80;;;21.33;;
58669;SDS011;44439;47.924;10.198;2022-11-20T17:42:55;54.45;;;36.08;;
58669;SDS011;44439;47.924;10.198;2022-11-20T17:45:41;28.10;;;19.13;;
58669;SDS011;44439;47.924;10.198;2022-11-20T17:48:27;16.65;;;13.60;;
58669;SDS011;44439;47.924;10.198;2022-11-20T17:51:15;14.40;;;11.88;;